Shoreham, United Kingdom

1:38 AM BST on September 03, 2014 (GMT +0100)
Shoreham By Sea | Change Station
CLOSE
Current Station
Personal Weather Station
Location: Shoreham-by-Sea, WEST SUSSEX
Elevation: 30 ft
Nearby Weather Stations

Elev 30 ft 50.84 °N, 0.25 °W | Updated 5 seconds ago

Scattered Clouds
Scattered Clouds
59.4 °F
Feels Like 59.4 °F
N
0.0
Wind Variable Wind from North
Gusts 1.6 mph

Today
High -- | Low -- °F
--% Chance of Precip.
Yesterday
High -- | Low -- °F
Precip. -- in
6:17 AM 7:42 PM
First Quarter, 56% visible
Pressure 30.21 in
Visibility 1.1 miles
Clouds Scattered Clouds 300 ft
Dew Point 58 °F
Humidity 95%
Rainfall 0.00 in
Snow Depth Not available.
UV 0 out of 12
Pollen Not available.
Air Quality Not available.
Flu Activity Not available.
METAR EGKK 030020Z VRB02KT 1800 BR SCT003 13/13 Q1023

More Conditions Fewer Conditions

Pressure 30.21 in
Visibility 1.1 miles
Clouds Scattered Clouds 300 ft
Dew Point 58 °F
Humidity 95%
Rainfall 0.00 in
Snow Depth Not available.
UV 0 out of 12
Pollen Not available.
Air Quality Not available.
Flu Activity Not available.
METAR EGKK 030020Z VRB02KT 1800 BR SCT003 13/13 Q1023

More Conditions Fewer Conditions

10-Day Weather Forecast

Almanac

Astronomy

Sep. 03, 2014 Rise Set
Actual Time 6:17 AM BST 7:42 PM BST
Civil Twilight 5:43 AM BST 8:16 PM BST
Nautical Twilight 5:01 AM BST 8:57 PM BST
Astronomical Twilight 4:16 AM BST 9:42 PM BST
Moon 3:31 PM BST No Moon Set
Length of Visible Light 14h 32m
Length of Day
13h 24m
Tomorrow will be 3m 44s shorter.
First Quarter, 56% of the Moon is Illuminated
Sep 2
First Quarter
Sep 8
Full
Sep 15
Last Quarter
Sep 24
New
Oct 1
First Quarter

Yesterday's Extremes

Country Highs Country Lows

Community

WunderPhotos

Upload Photos

1,749,812 photos uploaded!

Nearby

Snow Depth

Not available.

Earthquake Activity

City Distance Mag. Time & Date
No recent earthquake activity has been reported nearby.
Minimum magnitude displayed is 2.5.

Coastal Water Temperatures

Place Temperature
No Stations Reporting

Nearby Weather Stations